sensor_id;sensor_type;location;lat;lon;timestamp;P1;P2;P0
44871;PMS7003;30602;51.060;17.226;2023-04-29T00:03:33;38;33;20
44871;PMS7003;30602;51.060;17.226;2023-04-29T00:07:17;31;30;21
44871;PMS7003;30602;51.060;17.226;2023-04-29T00:11:10;34;31;24
44871;PMS7003;30602;51.060;17.226;2023-04-29T00:15:01;31;28;20
44871;PMS7003;30602;51.060;17.226;2023-04-29T00:19:18;31;29;21
44871;PMS7003;30602;51.060;17.226;2023-04-29T00:23:08;39;35;22
44871;PMS7003;30602;51.060;17.226;2023-04-29T00:26:41;35;30;22
44871;PMS7003;30602;51.060;17.226;2023-04-29T00:31:19;36;33;22
44871;PMS7003;30602;51.060;17.226;2023-04-29T00:35:47;32;28;21
44871;PMS7003;30602;51.060;17.226;2023-04-29T00:39:34;40;34;24
44871;PMS7003;30602;51.060;17.226;2023-04-29T00:42:54;29;29;19
44871;PMS7003;30602;51.060;17.226;2023-04-29T00:46:36;30;27;21
44871;PMS7003;30602;51.060;17.226;2023-04-29T00:50:03;33;30;21
44871;PMS7003;30602;51.060;17.226;2023-04-29T00:53:46;33;30;21
44871;PMS7003;30602;51.060;17.226;2023-04-29T00:57:49;37;29;22
44871;PMS7003;30602;51.060;17.226;2023-04-29T01:01:35;33;31;21
44871;PMS7003;30602;51.060;17.226;2023-04-29T01:05:34;36;31;22
44871;PMS7003;30602;51.060;17.226;2023-04-29T01:17:17;36;30;20
44871;PMS7003;30602;51.060;17.226;2023-04-29T01:21:01;38;31;21
44871;PMS7003;30602;51.060;17.226;2023-04-29T01:24:47;29;27;20
44871;PMS7003;30602;51.060;17.226;2023-04-29T01:43:51;28;23;17
44871;PMS7003;30602;51.060;17.226;2023-04-29T01:47:25;31;28;20
44871;PMS7003;30602;51.060;17.226;2023-04-29T01:51:13;25;21;16
44871;PMS7003;30602;51.060;17.226;2023-04-29T01:55:12;27;27;18
44871;PMS7003;30602;51.060;17.226;2023-04-29T01:58:45;28;24;19
44871;PMS7003;30602;51.060;17.226;2023-04-29T02:06:46;28;26;18
44871;PMS7003;30602;51.060;17.226;2023-04-29T02:10:08;26;22;18
44871;PMS7003;30602;51.060;17.226;2023-04-29T02:13:54;27;24;18
44871;PMS7003;30602;51.060;17.226;2023-04-29T02:17:18;31;26;19
44871;PMS7003;30602;51.060;17.226;2023-04-29T02:20:41;28;25;18
44871;PMS7003;30602;51.060;17.226;2023-04-29T02:24:47;29;24;18
44871;PMS7003;30602;51.060;17.226;2023-04-29T02:28:40;27;25;21
44871;PMS7003;30602;51.060;17.226;2023-04-29T02:32:26;39;33;22
44871;PMS7003;30602;51.060;17.226;2023-04-29T02:35:53;34;32;22
44871;PMS7003;30602;51.060;17.226;2023-04-29T02:39:15;29;26;20
44871;PMS7003;30602;51.060;17.226;2023-04-29T02:42:41;26;25;19
44871;PMS7003;30602;51.060;17.226;2023-04-29T02:46:34;26;25;18
44871;PMS7003;30602;51.060;17.226;2023-04-29T02:50:06;34;30;19
44871;PMS7003;30602;51.060;17.226;2023-04-29T02:53:58;29;22;17
44871;PMS7003;30602;51.060;17.226;2023-04-29T02:57:37;28;24;18
44871;PMS7003;30602;51.060;17.226;2023-04-29T03:01:07;28;22;17
44871;PMS7003;30602;51.060;17.226;2023-04-29T03:04:52;25;25;19
44871;PMS7003;30602;51.060;17.226;2023-04-29T03:08:46;26;22;18
44871;PMS7003;30602;51.060;17.226;2023-04-29T03:12:53;27;25;17
44871;PMS7003;30602;51.060;17.226;2023-04-29T03:16:17;28;22;16
44871;PMS7003;30602;51.060;17.226;2023-04-29T03:20:11;24;21;17
44871;PMS7003;30602;51.060;17.226;2023-04-29T03:23:43;24;22;17
44871;PMS7003;30602;51.060;17.226;2023-04-29T03:27:35;30;27;19
44871;PMS7003;30602;51.060;17.226;2023-04-29T03:31:29;26;25;18
44871;PMS7003;30602;51.060;17.226;2023-04-29T03:35:03;24;23;16
44871;PMS7003;30602;51.060;17.226;2023-04-29T03:38:40;23;23;18
44871;PMS7003;30602;51.060;17.226;2023-04-29T03:42:22;26;24;17
44871;PMS7003;30602;51.060;17.226;2023-04-29T03:46:03;26;24;17
44871;PMS7003;30602;51.060;17.226;2023-04-29T03:49:25;24;24;18
44871;PMS7003;30602;51.060;17.226;2023-04-29T03:52:59;28;24;18
44871;PMS7003;30602;51.060;17.226;2023-04-29T03:57:07;23;21;16
44871;PMS7003;30602;51.060;17.226;2023-04-29T04:00:45;28;23;17
44871;PMS7003;30602;51.060;17.226;2023-04-29T04:04:28;27;22;15
44871;PMS7003;30602;51.060;17.226;2023-04-29T04:08:24;27;22;17
44871;PMS7003;30602;51.060;17.226;2023-04-29T04:11:45;30;28;21
44871;PMS7003;30602;51.060;17.226;2023-04-29T04:15:37;30;29;21
44871;PMS7003;30602;51.060;17.226;2023-04-29T04:19:00;34;30;21
44871;PMS7003;30602;51.060;17.226;2023-04-29T04:22:49;24;22;17
44871;PMS7003;30602;51.060;17.226;2023-04-29T04:26:26;30;24;18
44871;PMS7003;30602;51.060;17.226;2023-04-29T04:29:54;32;27;17
44871;PMS7003;30602;51.060;17.226;2023-04-29T04:33:50;26;23;18
44871;PMS7003;30602;51.060;17.226;2023-04-29T04:38:06;24;23;18
44871;PMS7003;30602;51.060;17.226;2023-04-29T04:41:51;30;28;21
44871;PMS7003;30602;51.060;17.226;2023-04-29T04:45:58;26;24;18
44871;PMS7003;30602;51.060;17.226;2023-04-29T04:49:52;27;24;17
44871;PMS7003;30602;51.060;17.226;2023-04-29T04:53:33;27;27;19
44871;PMS7003;30602;51.060;17.226;2023-04-29T04:56:52;28;25;17
44871;PMS7003;30602;51.060;17.226;2023-04-29T05:00:20;34;31;20
44871;PMS7003;30602;51.060;17.226;2023-04-29T05:03:53;26;24;19
44871;PMS7003;30602;51.060;17.226;2023-04-29T05:07:21;34;27;19
44871;PMS7003;30602;51.060;17.226;2023-04-29T05:11:01;21;20;17
44871;PMS7003;30602;51.060;17.226;2023-04-29T05:14:43;34;27;19
44871;PMS7003;30602;51.060;17.226;2023-04-29T05:18:06;25;22;16
44871;PMS7003;30602;51.060;17.226;2023-04-29T05:21:49;25;22;17
44871;PMS7003;30602;51.060;17.226;2023-04-29T05:25:28;24;21;17
44871;PMS7003;30602;51.060;17.226;2023-04-29T05:29:20;23;19;16
44871;PMS7003;30602;51.060;17.226;2023-04-29T05:33:29;29;26;17
44871;PMS7003;30602;51.060;17.226;2023-04-29T05:37:22;21;21;17
44871;PMS7003;30602;51.060;17.226;2023-04-29T05:40:55;22;21;15
44871;PMS7003;30602;51.060;17.226;2023-04-29T05:44:26;30;27;18
44871;PMS7003;30602;51.060;17.226;2023-04-29T05:51:54;24;22;17
44871;PMS7003;30602;51.060;17.226;2023-04-29T05:55:41;23;20;15
44871;PMS7003;30602;51.060;17.226;2023-04-29T05:59:21;25;21;17
44871;PMS7003;30602;51.060;17.226;2023-04-29T06:02:48;29;27;18
44871;PMS7003;30602;51.060;17.226;2023-04-29T06:06:22;26;23;18
44871;PMS7003;30602;51.060;17.226;2023-04-29T06:09:45;22;19;16
44871;PMS7003;30602;51.060;17.226;2023-04-29T06:13:38;21;19;16
44871;PMS7003;30602;51.060;17.226;2023-04-29T06:17:13;21;19;14
44871;PMS7003;30602;51.060;17.226;2023-04-29T06:20:57;19;17;14
44871;PMS7003;30602;51.060;17.226;2023-04-29T06:24:32;22;20;17
44871;PMS7003;30602;51.060;17.226;2023-04-29T06:27:55;23;22;16
44871;PMS7003;30602;51.060;17.226;2023-04-29T06:31:35;19;18;15
44871;PMS7003;30602;51.060;17.226;2023-04-29T06:39:32;22;19;15
44871;PMS7003;30602;51.060;17.226;2023-04-29T06:42:55;21;20;15
44871;PMS7003;30602;51.060;17.226;2023-04-29T06:46:40;25;20;16
44871;PMS7003;30602;51.060;17.226;2023-04-29T06:49:59;24;21;15
44871;PMS7003;30602;51.060;17.226;2023-04-29T06:53:24;25;22;17
44871;PMS7003;30602;51.060;17.226;2023-04-29T06:57:27;25;23;16
44871;PMS7003;30602;51.060;17.226;2023-04-29T07:01:16;25;21;15
44871;PMS7003;30602;51.060;17.226;2023-04-29T07:04:39;20;19;15
44871;PMS7003;30602;51.060;17.226;2023-04-29T07:08:04;27;20;15
44871;PMS7003;30602;51.060;17.226;2023-04-29T07:12:25;25;20;15
44871;PMS7003;30602;51.060;17.226;2023-04-29T07:16:22;26;23;17
44871;PMS7003;30602;51.060;17.226;2023-04-29T07:20:09;18;17;13
44871;PMS7003;30602;51.060;17.226;2023-04-29T07:23:49;24;23;16
44871;PMS7003;30602;51.060;17.226;2023-04-29T07:27:18;24;19;15
44871;PMS7003;30602;51.060;17.226;2023-04-29T07:30:41;24;21;15
44871;PMS7003;30602;51.060;17.226;2023-04-29T07:34:33;22;21;17
44871;PMS7003;30602;51.060;17.226;2023-04-29T07:37:54;25;19;13
44871;PMS7003;30602;51.060;17.226;2023-04-29T07:41:39;24;19;15
44871;PMS7003;30602;51.060;17.226;2023-04-29T07:45:20;21;20;16
44871;PMS7003;30602;51.060;17.226;2023-04-29T07:49:06;28;23;16
44871;PMS7003;30602;51.060;17.226;2023-04-29T07:56:46;25;19;15
44871;PMS7003;30602;51.060;17.226;2023-04-29T08:00:22;28;23;17
44871;PMS7003;30602;51.060;17.226;2023-04-29T08:04:02;33;25;18
44871;PMS7003;30602;51.060;17.226;2023-04-29T08:07:26;27;24;14
44871;PMS7003;30602;51.060;17.226;2023-04-29T08:10:46;27;20;16
44871;PMS7003;30602;51.060;17.226;2023-04-29T08:14:19;33;29;19
44871;PMS7003;30602;51.060;17.226;2023-04-29T08:17:43;34;27;19
44871;PMS7003;30602;51.060;17.226;2023-04-29T08:21:25;27;25;18
44871;PMS7003;30602;51.060;17.226;2023-04-29T08:25:11;27;26;20
44871;PMS7003;30602;51.060;17.226;2023-04-29T08:28:53;33;27;18
44871;PMS7003;30602;51.060;17.226;2023-04-29T08:32:17;27;23;18
44871;PMS7003;30602;51.060;17.226;2023-04-29T08:35:36;27;25;18
44871;PMS7003;30602;51.060;17.226;2023-04-29T08:39:31;31;26;18
44871;PMS7003;30602;51.060;17.226;2023-04-29T08:43:02;31;26;19
44871;PMS7003;30602;51.060;17.226;2023-04-29T08:46:58;27;25;18
44871;PMS7003;30602;51.060;17.226;2023-04-29T08:50:45;26;23;15
44871;PMS7003;30602;51.060;17.226;2023-04-29T08:54:03;25;24;17
44871;PMS7003;30602;51.060;17.226;2023-04-29T08:57:48;30;27;19
44871;PMS7003;30602;51.060;17.226;2023-04-29T09:01:31;33;27;18
44871;PMS7003;30602;51.060;17.226;2023-04-29T09:05:09;29;25;19
44871;PMS7003;30602;51.060;17.226;2023-04-29T09:09:03;32;26;18
44871;PMS7003;30602;51.060;17.226;2023-04-29T09:13:22;29;26;19
44871;PMS7003;30602;51.060;17.226;2023-04-29T09:17:42;32;28;19
44871;PMS7003;30602;51.060;17.226;2023-04-29T09:21:36;28;26;19
44871;PMS7003;30602;51.060;17.226;2023-04-29T09:25:26;41;34;22
44871;PMS7003;30602;51.060;17.226;2023-04-29T09:29:32;27;25;19
44871;PMS7003;30602;51.060;17.226;2023-04-29T09:37:01;20;19;15
44871;PMS7003;30602;51.060;17.226;2023-04-29T09:44:23;26;23;17
44871;PMS7003;30602;51.060;17.226;2023-04-29T09:48:05;26;25;17
44871;PMS7003;30602;51.060;17.226;2023-04-29T09:51:32;24;21;16
44871;PMS7003;30602;51.060;17.226;2023-04-29T09:55:08;23;21;15
44871;PMS7003;30602;51.060;17.226;2023-04-29T09:59:06;25;23;18
44871;PMS7003;30602;51.060;17.226;2023-04-29T10:02:54;27;24;17
44871;PMS7003;30602;51.060;17.226;2023-04-29T10:10:31;28;22;16
44871;PMS7003;30602;51.060;17.226;2023-04-29T10:14:25;25;21;16
44871;PMS7003;30602;51.060;17.226;2023-04-29T10:26:17;25;23;17
44871;PMS7003;30602;51.060;17.226;2023-04-29T10:30:03;27;27;19
44871;PMS7003;30602;51.060;17.226;2023-04-29T10:33:38;28;27;19
44871;PMS7003;30602;51.060;17.226;2023-04-29T10:37:07;21;18;14
44871;PMS7003;30602;51.060;17.226;2023-04-29T10:40:36;21;19;13
44871;PMS7003;30602;51.060;17.226;2023-04-29T10:45:15;24;18;14
44871;PMS7003;30602;51.060;17.226;2023-04-29T10:48:35;29;26;17
44871;PMS7003;30602;51.060;17.226;2023-04-29T10:52:08;25;21;16
44871;PMS7003;30602;51.060;17.226;2023-04-29T10:56:04;22;20;15
44871;PMS7003;30602;51.060;17.226;2023-04-29T10:59:54;21;18;13
44871;PMS7003;30602;51.060;17.226;2023-04-29T11:04:08;20;18;14
44871;PMS7003;30602;51.060;17.226;2023-04-29T11:07:42;17;16;12
44871;PMS7003;30602;51.060;17.226;2023-04-29T11:15:01;13;12;9
44871;PMS7003;30602;51.060;17.226;2023-04-29T11:18:29;12;12;9
44871;PMS7003;30602;51.060;17.226;2023-04-29T11:22:34;18;14;11
44871;PMS7003;30602;51.060;17.226;2023-04-29T11:26:37;16;14;10
44871;PMS7003;30602;51.060;17.226;2023-04-29T11:30:02;11;10;7
44871;PMS7003;30602;51.060;17.226;2023-04-29T11:33:54;14;12;9
44871;PMS7003;30602;51.060;17.226;2023-04-29T11:37:43;16;13;10
44871;PMS7003;30602;51.060;17.226;2023-04-29T11:41:28;14;13;10
44871;PMS7003;30602;51.060;17.226;2023-04-29T11:44:51;12;12;9
44871;PMS7003;30602;51.060;17.226;2023-04-29T11:49:02;14;13;10
44871;PMS7003;30602;51.060;17.226;2023-04-29T11:52:40;16;13;10
44871;PMS7003;30602;51.060;17.226;2023-04-29T11:56:24;12;11;9
44871;PMS7003;30602;51.060;17.226;2023-04-29T12:00:23;12;11;9
44871;PMS7003;30602;51.060;17.226;2023-04-29T12:03:50;13;12;8
44871;PMS7003;30602;51.060;17.226;2023-04-29T12:07:15;12;12;9
44871;PMS7003;30602;51.060;17.226;2023-04-29T12:10:53;13;11;9
44871;PMS7003;30602;51.060;17.226;2023-04-29T12:15:12;11;9;8
44871;PMS7003;30602;51.060;17.226;2023-04-29T12:18:37;16;14;10
44871;PMS7003;30602;51.060;17.226;2023-04-29T12:26:54;14;13;10
44871;PMS7003;30602;51.060;17.226;2023-04-29T12:30:18;10;9;7
44871;PMS7003;30602;51.060;17.226;2023-04-29T12:34:11;13;12;9
44871;PMS7003;30602;51.060;17.226;2023-04-29T12:37:53;15;14;10
44871;PMS7003;30602;51.060;17.226;2023-04-29T12:41:16;11;10;8
44871;PMS7003;30602;51.060;17.226;2023-04-29T12:44:46;13;11;9
44871;PMS7003;30602;51.060;17.226;2023-04-29T12:48:37;20;15;11
44871;PMS7003;30602;51.060;17.226;2023-04-29T12:53:07;11;11;9
44871;PMS7003;30602;51.060;17.226;2023-04-29T12:56:34;25;19;12
44871;PMS7003;30602;51.060;17.226;2023-04-29T13:00:11;22;19;12
44871;PMS7003;30602;51.060;17.226;2023-04-29T13:04:21;13;13;9
44871;PMS7003;30602;51.060;17.226;2023-04-29T14:05:14;3;3;3
44871;PMS7003;30602;51.060;17.226;2023-04-29T14:13:23;4;4;3
44871;PMS7003;30602;51.060;17.226;2023-04-29T14:16:45;5;4;3
44871;PMS7003;30602;51.060;17.226;2023-04-29T14:20:31;5;5;5
44871;PMS7003;30602;51.060;17.226;2023-04-29T14:28:06;8;5;5
44871;PMS7003;30602;51.060;17.226;2023-04-29T14:32:17;9;9;7
44871;PMS7003;30602;51.060;17.226;2023-04-29T14:36:00;6;6;4
44871;PMS7003;30602;51.060;17.226;2023-04-29T14:39:43;5;4;3
44871;PMS7003;30602;51.060;17.226;2023-04-29T14:43:34;7;4;4
44871;PMS7003;30602;51.060;17.226;2023-04-29T14:46:58;5;5;4
44871;PMS7003;30602;51.060;17.226;2023-04-29T14:50:54;5;4;4
44871;PMS7003;30602;51.060;17.226;2023-04-29T14:54:57;3;3;3
44871;PMS7003;30602;51.060;17.226;2023-04-29T14:58:47;5;3;2
44871;PMS7003;30602;51.060;17.226;2023-04-29T15:02:12;7;7;5
44871;PMS7003;30602;51.060;17.226;2023-04-29T15:06:21;4;4;3
44871;PMS7003;30602;51.060;17.226;2023-04-29T15:10:45;7;5;4
44871;PMS7003;30602;51.060;17.226;2023-04-29T15:14:39;6;5;3
44871;PMS7003;30602;51.060;17.226;2023-04-29T15:19:21;19;17;11
44871;PMS7003;30602;51.060;17.226;2023-04-29T15:23:24;11;11;8
44871;PMS7003;30602;51.060;17.226;2023-04-29T15:27:26;22;21;16
44871;PMS7003;30602;51.060;17.226;2023-04-29T15:31:00;21;17;13
44871;PMS7003;30602;51.060;17.226;2023-04-29T15:35:12;9;9;7
44871;PMS7003;30602;51.060;17.226;2023-04-29T15:38:59;13;12;9
44871;PMS7003;30602;51.060;17.226;2023-04-29T15:42:33;29;25;20
44871;PMS7003;30602;51.060;17.226;2023-04-29T15:46:44;17;16;11
44871;PMS7003;30602;51.060;17.226;2023-04-29T15:50:10;10;8;7
44871;PMS7003;30602;51.060;17.226;2023-04-29T15:54:35;26;20;13
44871;PMS7003;30602;51.060;17.226;2023-04-29T15:58:28;7;6;5
44871;PMS7003;30602;51.060;17.226;2023-04-29T16:02:35;54;43;27
44871;PMS7003;30602;51.060;17.226;2023-04-29T16:06:18;18;17;13
44871;PMS7003;30602;51.060;17.226;2023-04-29T16:10:00;7;6;5
44871;PMS7003;30602;51.060;17.226;2023-04-29T16:13:54;10;7;6
44871;PMS7003;30602;51.060;17.226;2023-04-29T16:17:36;10;8;7
44871;PMS7003;30602;51.060;17.226;2023-04-29T16:21:01;23;19;11
44871;PMS7003;30602;51.060;17.226;2023-04-29T16:25:25;19;14;11
44871;PMS7003;30602;51.060;17.226;2023-04-29T16:28:59;16;14;11
44871;PMS7003;30602;51.060;17.226;2023-04-29T16:32:20;17;15;11
44871;PMS7003;30602;51.060;17.226;2023-04-29T16:36:06;19;15;12
44871;PMS7003;30602;51.060;17.226;2023-04-29T16:40:16;20;20;15
44871;PMS7003;30602;51.060;17.226;2023-04-29T16:44:56;45;38;26
44871;PMS7003;30602;51.060;17.226;2023-04-29T16:55:35;24;24;18
44871;PMS7003;30602;51.060;17.226;2023-04-29T16:58:57;25;23;17
44871;PMS7003;30602;51.060;17.226;2023-04-29T17:03:22;30;27;18
44871;PMS7003;30602;51.060;17.226;2023-04-29T17:07:11;35;28;20
44871;PMS7003;30602;51.060;17.226;2023-04-29T17:11:29;29;26;19
44871;PMS7003;30602;51.060;17.226;2023-04-29T17:15:56;37;28;19
44871;PMS7003;30602;51.060;17.226;2023-04-29T17:19:37;27;26;17
44871;PMS7003;30602;51.060;17.226;2023-04-29T17:23:33;19;17;14
44871;PMS7003;30602;51.060;17.226;2023-04-29T17:27:52;15;15;11
44871;PMS7003;30602;51.060;17.226;2023-04-29T17:32:29;22;21;15
44871;PMS7003;30602;51.060;17.226;2023-04-29T17:35:54;17;14;10
44871;PMS7003;30602;51.060;17.226;2023-04-29T17:40:27;25;21;14
44871;PMS7003;30602;51.060;17.226;2023-04-29T17:44:08;18;17;13
44871;PMS7003;30602;51.060;17.226;2023-04-29T17:47:33;11;11;8
44871;PMS7003;30602;51.060;17.226;2023-04-29T17:51:17;14;13;10
44871;PMS7003;30602;51.060;17.226;2023-04-29T17:54:50;29;23;16
44871;PMS7003;30602;51.060;17.226;2023-04-29T17:59:11;35;29;20
44871;PMS7003;30602;51.060;17.226;2023-04-29T18:02:29;19;17;11
44871;PMS7003;30602;51.060;17.226;2023-04-29T18:06:11;13;10;7
44871;PMS7003;30602;51.060;17.226;2023-04-29T18:09:55;19;15;11
44871;PMS7003;30602;51.060;17.226;2023-04-29T18:13:49;13;13;10
44871;PMS7003;30602;51.060;17.226;2023-04-29T18:17:13;22;19;15
44871;PMS7003;30602;51.060;17.226;2023-04-29T18:21:11;26;21;15
44871;PMS7003;30602;51.060;17.226;2023-04-29T18:25:21;28;22;16
44871;PMS7003;30602;51.060;17.226;2023-04-29T18:28:55;22;19;13
44871;PMS7003;30602;51.060;17.226;2023-04-29T18:32:18;30;20;15
44871;PMS7003;30602;51.060;17.226;2023-04-29T18:35:43;31;26;18
44871;PMS7003;30602;51.060;17.226;2023-04-29T18:39:25;27;22;16
44871;PMS7003;30602;51.060;17.226;2023-04-29T18:43:50;20;19;14
44871;PMS7003;30602;51.060;17.226;2023-04-29T18:47:14;23;19;12
44871;PMS7003;30602;51.060;17.226;2023-04-29T18:51:05;25;22;14
44871;PMS7003;30602;51.060;17.226;2023-04-29T18:54:42;41;33;21
44871;PMS7003;30602;51.060;17.226;2023-04-29T18:58:10;37;32;19
44871;PMS7003;30602;51.060;17.226;2023-04-29T19:02:31;44;36;23
44871;PMS7003;30602;51.060;17.226;2023-04-29T19:06:17;34;27;18
44871;PMS7003;30602;51.060;17.226;2023-04-29T19:09:42;41;35;21
44871;PMS7003;30602;51.060;17.226;2023-04-29T19:13:35;45;36;24
44871;PMS7003;30602;51.060;17.226;2023-04-29T19:17:35;47;40;25
44871;PMS7003;30602;51.060;17.226;2023-04-29T19:21:02;46;38;23
44871;PMS7003;30602;51.060;17.226;2023-04-29T19:24:54;48;40;25
44871;PMS7003;30602;51.060;17.226;2023-04-29T19:29:04;52;42;26
44871;PMS7003;30602;51.060;17.226;2023-04-29T19:32:48;53;40;24
44871;PMS7003;30602;51.060;17.226;2023-04-29T19:36:38;54;44;26
44871;PMS7003;30602;51.060;17.226;2023-04-29T19:40:35;55;41;24
44871;PMS7003;30602;51.060;17.226;2023-04-29T19:44:43;51;39;25
44871;PMS7003;30602;51.060;17.226;2023-04-29T19:48:34;53;42;26
44871;PMS7003;30602;51.060;17.226;2023-04-29T19:52:32;52;42;25
44871;PMS7003;30602;51.060;17.226;2023-04-29T19:56:10;68;51;29
44871;PMS7003;30602;51.060;17.226;2023-04-29T19:59:55;63;47;29
44871;PMS7003;30602;51.060;17.226;2023-04-29T20:03:46;54;42;27
44871;PMS7003;30602;51.060;17.226;2023-04-29T20:07:46;63;48;27
44871;PMS7003;30602;51.060;17.226;2023-04-29T20:11:12;64;52;33
44871;PMS7003;30602;51.060;17.226;2023-04-29T20:15:12;61;48;31
44871;PMS7003;30602;51.060;17.226;2023-04-29T20:19:49;65;51;31
44871;PMS7003;30602;51.060;17.226;2023-04-29T20:24:05;62;48;31
44871;PMS7003;30602;51.060;17.226;2023-04-29T20:28:00;62;49;31
44871;PMS7003;30602;51.060;17.226;2023-04-29T20:31:32;60;48;30
44871;PMS7003;30602;51.060;17.226;2023-04-29T20:35:08;65;53;30
44871;PMS7003;30602;51.060;17.226;2023-04-29T20:39:32;61;49;30
44871;PMS7003;30602;51.060;17.226;2023-04-29T20:43:18;67;51;31
44871;PMS7003;30602;51.060;17.226;2023-04-29T20:47:24;57;45;28
44871;PMS7003;30602;51.060;17.226;2023-04-29T20:50:48;63;50;29
44871;PMS7003;30602;51.060;17.226;2023-04-29T20:54:42;63;51;31
44871;PMS7003;30602;51.060;17.226;2023-04-29T20:59:12;64;50;30
44871;PMS7003;30602;51.060;17.226;2023-04-29T21:02:35;58;43;27
44871;PMS7003;30602;51.060;17.226;2023-04-29T21:07:29;59;46;27
44871;PMS7003;30602;51.060;17.226;2023-04-29T21:11:19;62;49;27
44871;PMS7003;30602;51.060;17.226;2023-04-29T21:14:47;60;46;27
44871;PMS7003;30602;51.060;17.226;2023-04-29T21:18:12;57;46;29
44871;PMS7003;30602;51.060;17.226;2023-04-29T21:21:57;54;44;27
44871;PMS7003;30602;51.060;17.226;2023-04-29T21:25:32;50;41;27
44871;PMS7003;30602;51.060;17.226;2023-04-29T21:30:03;49;40;25
44871;PMS7003;30602;51.060;17.226;2023-04-29T21:34:24;45;37;23
44871;PMS7003;30602;51.060;17.226;2023-04-29T21:38:13;41;37;24
44871;PMS7003;30602;51.060;17.226;2023-04-29T21:42:44;41;30;19
44871;PMS7003;30602;51.060;17.226;2023-04-29T21:46:26;36;32;20
44871;PMS7003;30602;51.060;17.226;2023-04-29T21:50:09;34;32;20
44871;PMS7003;30602;51.060;17.226;2023-04-29T21:54:37;41;35;23
44871;PMS7003;30602;51.060;17.226;2023-04-29T21:59:26;44;36;22
44871;PMS7003;30602;51.060;17.226;2023-04-29T22:02:54;41;33;20
44871;PMS7003;30602;51.060;17.226;2023-04-29T22:06:33;37;32;21
44871;PMS7003;30602;51.060;17.226;2023-04-29T22:09:55;35;32;21
44871;PMS7003;30602;51.060;17.226;2023-04-29T22:14:06;43;38;24
44871;PMS7003;30602;51.060;17.226;2023-04-29T22:18:15;48;38;23
44871;PMS7003;30602;51.060;17.226;2023-04-29T22:22:02;42;38;24
44871;PMS7003;30602;51.060;17.226;2023-04-29T22:25:25;41;36;25
44871;PMS7003;30602;51.060;17.226;2023-04-29T22:29:14;45;38;24
44871;PMS7003;30602;51.060;17.226;2023-04-29T22:33:24;50;40;25
44871;PMS7003;30602;51.060;17.226;2023-04-29T22:36:52;47;39;25
44871;PMS7003;30602;51.060;17.226;2023-04-29T22:40:53;44;38;25
44871;PMS7003;30602;51.060;17.226;2023-04-29T22:44:32;43;36;24
44871;PMS7003;30602;51.060;17.226;2023-04-29T22:47:57;37;35;24
44871;PMS7003;30602;51.060;17.226;2023-04-29T22:51:29;42;33;22
44871;PMS7003;30602;51.060;17.226;2023-04-29T22:55:21;34;29;22
44871;PMS7003;30602;51.060;17.226;2023-04-29T22:58:49;37;31;20
44871;PMS7003;30602;51.060;17.226;2023-04-29T23:02:43;33;30;21
44871;PMS7003;30602;51.060;17.226;2023-04-29T23:06:27;32;32;23
44871;PMS7003;30602;51.060;17.226;2023-04-29T23:10:33;35;31;20
44871;PMS7003;30602;51.060;17.226;2023-04-29T23:14:36;35;29;20
44871;PMS7003;30602;51.060;17.226;2023-04-29T23:18:23;39;34;20
44871;PMS7003;30602;51.060;17.226;2023-04-29T23:22:41;29;29;20
44871;PMS7003;30602;51.060;17.226;2023-04-29T23:26:25;32;24;16
44871;PMS7003;30602;51.060;17.226;2023-04-29T23:30:30;30;27;18
44871;PMS7003;30602;51.060;17.226;2023-04-29T23:34:54;34;31;20
44871;PMS7003;30602;51.060;17.226;2023-04-29T23:38:26;38;33;20
44871;PMS7003;30602;51.060;17.226;2023-04-29T23:42:27;37;29;19
44871;PMS7003;30602;51.060;17.226;2023-04-29T23:45:51;30;26;18
44871;PMS7003;30602;51.060;17.226;2023-04-29T23:49:23;31;28;19
44871;PMS7003;30602;51.060;17.226;2023-04-29T23:53:06;31;28;19
44871;PMS7003;30602;51.060;17.226;2023-04-29T23:57:23;34;30;20
